Terminal Aerodrome Forecast
Issued by NWS

Home | Current Version | Previous Version | Text Only | Print | Product List | Glossary On
Versions: 1 2 3 4 5 6 7 8 9 10 11 12 13 14
000
FTUS42 KMLB 162100 AAA
TAFISM
TAF AMD
KISM 162105Z 1621/1718 29008KT P6SM VCTS SCT040CB BKN080
      TEMPO 1621/1623 -RA BKN040
     FM170000 26004KT P6SM SCT080 OVC150
     FM171400 26010KT P6SM FEW020 SCT120 SCT250=

USA.gov is the U.S. government's official web portal to all federal, state and local government web resources and services.